KUGN/UGN METAR and TAF weather

Enter ICAO airport designator
Station Type Date Time Source
KUGN METAR 2022/01/18 07:55 UTC NOAA

KUGN 180755Z AUTO 25006KT 9SM OVC100 M06/M08 A2993 RMK AO2 SLP152 T10561083 $


Station Type Date Time Source
KUGN Decoded METAR 2022/01/18 07:55 UTC NOAA

CHICAGO/WAUKEGAN REGIONAL, IL, United States (KUGN) 42-25N 087-52W
Jan 18, 2022 - 02:55 AM EST / 2022.01.18 0755 UTC
Wind: from the WSW (250 degrees) at 7 MPH (6 KT):0
Visibility: 9 mile(s):0
Sky conditions: overcast
Temperature: 21.9 F (-5.6 C)
Windchill: 14 F (-10 C):1
Dew Point: 17.1 F (-8.3 C)
Relative Humidity: 81%
Pressure (altimeter): 29.93 in. Hg (1013 hPa)
ob: KUGN 180755Z AUTO 25006KT 9SM OVC100 M06/M08 A2993 RMK AO2 SLP152 T10561083
cycle: 8

Station Type Date Time Source
KUGN TAF UTC NOAA

Error!

Example: see airport list